Time;durP1;ratioP1;P1;durP2;ratioP2;P2;SDS_P1;SDS_P2;PMS_P1;PMS_P2;Temp;Humidity;BMP_temperature;BMP_pressure;BME280_temperature;BME280_humidity;BME280_pressure;Samples;Min_cycle;Max_cycle;Signal;HPM_P1;HPM_P2
2024/01/08 00:01:51;;;;;;;;;;;;;;;5.01;76.08;102731.50;7312938;19;19955;-67
2024/01/08 00:04:18;;;;;;;;;;;;;;;4.97;75.21;102729.94;7296887;19;19923;-68
2024/01/08 00:06:45;;;;;;;;;;;;;;;4.99;76.63;102728.09;7296754;19;19962;-68
2024/01/08 00:09:12;;;;;;;;;;;;;;;4.92;73.91;102744.97;7299999;19;19986;-69
2024/01/08 00:11:39;;;;;;;;;;;;;;;4.92;74.67;102731.06;7297711;19;20365;-67
2024/01/08 00:14:06;;;;;;;;;;;;;;;4.97;75.81;102734.31;7301217;19;20346;-69
2024/01/08 00:16:33;;;;;;;;;;;;;;;4.98;74.39;102721.19;7283765;19;19922;-69
2024/01/08 00:19:00;;;;;;;;;;;;;;;4.99;72.59;102725.50;7304498;19;19994;-67
2024/01/08 00:21:27;;;;;;;;;;;;;;;4.98;73.51;102721.19;7282146;19;19915;-68
2024/01/08 00:23:54;;;;;;;;;;;;;;;5.00;74.44;102721.13;7294363;19;20280;-68
2024/01/08 00:26:21;;;;;;;;;;;;;;;5.04;72.80;102723.53;7298414;19;19946;-66
2024/01/08 00:28:48;;;;;;;;;;;;;;;5.04;71.40;102714.84;7282823;19;19929;-66
2024/01/08 00:31:15;;;;;;;;;;;;;;;5.01;73.01;102718.44;7280679;19;19931;-69
2024/01/08 00:33:45;;;;;;;;;;;;;;;4.98;73.79;102726.41;7283064;19;20510;-67
2024/01/08 00:36:17;;;;;;;;;;;;;;;5.00;71.47;102721.13;7301789;19;20375;-67
2024/01/08 00:38:44;;;;;;;;;;;;;;;5.00;73.19;102726.34;7300132;19;19919;-67
2024/01/08 00:41:11;;;;;;;;;;;;;;;5.03;71.40;102734.84;7280756;19;19934;-69
2024/01/08 00:43:38;;;;;;;;;;;;;;;5.06;72.13;102724.31;7297978;19;20182;-68
2024/01/08 00:46:05;;;;;;;;;;;;;;;4.95;70.13;102726.56;7308240;19;19919;-67
2024/01/08 00:48:32;;;;;;;;;;;;;;;4.97;70.32;102729.94;7305698;19;19926;-67
2024/01/08 00:50:58;;;;;;;;;;;;;;;4.96;69.65;102733.47;7314821;19;20559;-69
2024/01/08 00:53:25;;;;;;;;;;;;;;;4.94;69.08;102731.81;7305198;19;19922;-67
2024/01/08 00:55:52;;;;;;;;;;;;;;;4.98;68.45;102729.00;7303427;19;20840;-67
2024/01/08 00:58:19;;;;;;;;;;;;;;;4.95;68.22;102736.13;7292082;19;20509;-68
2024/01/08 01:00:46;;;;;;;;;;;;;;;4.98;68.61;102730.75;7286254;19;20403;-68
2024/01/08 01:03:13;;;;;;;;;;;;;;;4.97;68.54;102735.16;7288607;19;20276;-68
2024/01/08 01:05:40;;;;;;;;;;;;;;;4.95;69.38;102736.97;7293212;19;20013;-67
2024/01/08 01:08:07;;;;;;;;;;;;;;;5.00;70.33;102732.41;7283229;19;20389;-67
2024/01/08 01:10:34;;;;;;;;;;;;;;;5.03;69.08;102728.78;7296476;19;19918;-67
2024/01/08 01:13:05;;;;;;;;;;;;;;;5.05;69.76;102737.41;7302393;19;21781;-67
2024/01/08 01:15:31;;;;;;;;;;;;;;;5.05;69.49;102737.41;7296013;19;19915;-70
2024/01/08 01:18:00;;;;;;;;;;;;;;;5.08;69.29;102737.25;7292354;19;19915;-69
2024/01/08 01:20:27;;;;;;;;;;;;;;;5.06;70.55;102731.28;7296687;19;19941;-70
2024/01/08 01:22:54;;;;;;;;;;;;;;;5.05;67.64;102740.03;7281714;19;19915;-68
2024/01/08 01:25:21;;;;;;;;;;;;;;;5.07;69.41;102739.03;7294594;19;20374;-68
2024/01/08 01:27:48;;;;;;;;;;;;;;;5.06;68.83;102739.09;7299578;19;19930;-70
2024/01/08 01:30:15;;;;;;;;;;;;;;;5.04;69.45;102733.94;7285580;19;20183;-67
2024/01/08 01:32:42;;;;;;;;;;;;;;;5.05;70.17;102740.88;7277453;19;20846;-68
2024/01/08 01:35:09;;;;;;;;;;;;;;;5.09;69.85;102734.59;7288941;19;19926;-67
2024/01/08 01:37:36;;;;;;;;;;;;;;;5.10;69.29;102738.03;7281093;19;19930;-68
2024/01/08 01:40:03;;;;;;;;;;;;;;;5.10;68.93;102738.91;7289413;19;19926;-68
2024/01/08 01:42:30;;;;;;;;;;;;;;;5.11;69.99;102735.38;7283843;19;19911;-66
2024/01/08 01:44:57;;;;;;;;;;;;;;;5.09;69.56;102736.34;7292767;19;20769;-67
2024/01/08 01:47:25;;;;;;;;;;;;;;;5.12;68.91;102733.63;7288177;19;19941;-69
2024/01/08 01:49:53;;;;;;;;;;;;;;;5.10;67.32;102736.28;7281251;19;20303;-67
2024/01/08 01:52:21;;;;;;;;;;;;;;;5.03;65.46;102734.00;7293632;19;19907;-69
2024/01/08 01:54:50;;;;;;;;;;;;;;;5.05;66.15;102738.25;7296085;19;19933;-67
2024/01/08 01:57:17;;;;;;;;;;;;;;;5.03;65.81;102732.25;7279805;19;20056;-69
2024/01/08 01:59:44;;;;;;;;;;;;;;;5.04;68.00;102744.38;7281344;19;20671;-68
2024/01/08 02:02:14;;;;;;;;;;;;;;;5.02;66.08;102732.34;7292158;19;21516;-68
2024/01/08 02:04:42;;;;;;;;;;;;;;;5.00;66.46;102731.56;7292963;19;19919;-69
2024/01/08 02:07:09;;;;;;;;;;;;;;;5.01;68.15;102741.06;7292069;19;20436;-66
2024/01/08 02:09:36;;;;;;;;;;;;;;;4.99;68.83;102737.69;7295414;19;20221;-68
2024/01/08 02:12:03;;;;;;;;;;;;;;;5.03;69.38;102739.22;7295231;19;19914;-68
2024/01/08 02:14:30;;;;;;;;;;;;;;;5.05;68.62;102734.81;7312994;19;19927;-67
2024/01/08 02:16:57;;;;;;;;;;;;;;;5.08;68.67;102737.25;7314702;19;20488;-68
2024/01/08 02:19:24;;;;;;;;;;;;;;;5.14;71.79;102750.88;7282576;19;20677;-67
2024/01/08 02:21:51;;;;;;;;;;;;;;;5.16;67.83;102751.66;7288176;19;19915;-67
2024/01/08 02:24:20;;;;;;;;;;;;;;;5.20;67.40;102748.91;7296363;19;19925;-69
2024/01/08 02:26:47;;;;;;;;;;;;;;;5.13;66.34;102743.09;7276309;19;20899;-68
2024/01/08 02:29:14;;;;;;;;;;;;;;;5.08;65.81;102751.16;7287271;19;19919;-68
2024/01/08 02:31:41;;;;;;;;;;;;;;;5.08;67.33;102747.69;7292023;19;20831;-67
2024/01/08 02:34:08;;;;;;;;;;;;;;;5.05;66.13;102755.66;7285866;19;20411;-69
2024/01/08 02:36:36;;;;;;;;;;;;;;;4.99;65.14;102754.19;7294369;19;19957;-68
2024/01/08 02:39:03;;;;;;;;;;;;;;;4.98;67.55;102751.63;7289236;19;19955;-68
2024/01/08 02:41:30;;;;;;;;;;;;;;;4.99;67.90;102748.97;7278477;19;19914;-68
2024/01/08 02:43:57;;;;;;;;;;;;;;;4.98;67.43;102749.03;7292946;19;21044;-68
2024/01/08 02:46:24;;;;;;;;;;;;;;;4.88;66.54;102747.75;7303596;19;19923;-68
2024/01/08 02:48:51;;;;;;;;;;;;;;;4.84;66.46;102757.47;7303517;19;20011;-68
2024/01/08 02:51:18;;;;;;;;;;;;;;;4.82;67.85;102759.31;7287760;19;20422;-68
2024/01/08 02:53:45;;;;;;;;;;;;;;;4.84;68.37;102744.44;7296949;19;19933;-68
2024/01/08 02:56:21;;;;;;;;;;;;;;;4.84;67.99;102747.03;7290495;19;19930;-67
2024/01/08 02:58:48;;;;;;;;;;;;;;;4.87;67.80;102741.72;7299882;19;19923;-67
2024/01/08 03:01:15;;;;;;;;;;;;;;;4.90;67.24;102745.94;7317634;19;19921;-68
2024/01/08 03:03:42;;;;;;;;;;;;;;;4.87;68.01;102746.94;7302615;19;20594;-68
2024/01/08 03:06:10;;;;;;;;;;;;;;;4.91;68.90;102745.88;7302329;19;19950;-67
2024/01/08 03:08:37;;;;;;;;;;;;;;;4.95;70.04;102742.19;7300397;19;19919;-68
2024/01/08 03:11:04;;;;;;;;;;;;;;;4.94;67.19;102743.09;7292247;19;22161;-67
2024/01/08 03:13:31;;;;;;;;;;;;;;;4.97;68.36;102748.22;7293734;19;19935;-69
2024/01/08 03:15:58;;;;;;;;;;;;;;;5.01;68.08;102741.94;7284337;19;19923;-69
2024/01/08 03:18:25;;;;;;;;;;;;;;;5.07;69.05;102744.25;7294936;19;19926;-69
2024/01/08 03:20:56;;;;;;;;;;;;;;;5.08;68.02;102742.47;7297633;19;19923;-68
2024/01/08 03:23:27;;;;;;;;;;;;;;;5.11;67.39;102739.75;7296324;19;19922;-68
2024/01/08 03:25:54;;;;;;;;;;;;;;;5.12;66.77;102737.06;7297476;19;20433;-67
2024/01/08 03:28:21;;;;;;;;;;;;;;;5.08;65.55;102743.31;7285404;19;19963;-68
2024/01/08 03:30:48;;;;;;;;;;;;;;;5.05;66.90;102750.44;7297977;19;20509;-68
2024/01/08 03:33:15;;;;;;;;;;;;;;;5.05;67.16;102746.09;7289455;19;19986;-68
2024/01/08 03:35:43;;;;;;;;;;;;;;;5.02;66.06;102754.06;7286651;19;19986;-67
2024/01/08 03:38:10;;;;;;;;;;;;;;;5.03;69.18;102747.91;7297078;19;19927;-67
2024/01/08 03:40:37;;;;;;;;;;;;;;;5.08;69.10;102745.09;7291709;19;19933;-66
2024/01/08 03:43:03;;;;;;;;;;;;;;;5.10;69.76;102741.50;7292288;19;20106;-67
2024/01/08 03:45:33;;;;;;;;;;;;;;;5.12;67.30;102741.44;7290895;19;19922;-67
2024/01/08 03:48:00;;;;;;;;;;;;;;;5.14;68.15;102739.59;7296386;19;19918;-68
2024/01/08 03:50:27;;;;;;;;;;;;;;;5.06;67.44;102745.19;7295167;19;19923;-67
2024/01/08 03:52:54;;;;;;;;;;;;;;;5.11;66.26;102756.25;7292870;19;19941;-67
2024/01/08 03:55:22;;;;;;;;;;;;;;;5.16;67.58;102745.59;7283360;19;19934;-69
2024/01/08 03:57:53;;;;;;;;;;;;;;;5.18;69.57;102743.78;7286897;19;19934;-67
2024/01/08 04:00:19;;;;;;;;;;;;;;;5.24;70.68;102753.06;7288668;19;19929;-67
2024/01/08 04:02:46;;;;;;;;;;;;;;;5.23;67.68;102754.84;7291909;19;20426;-66
2024/01/08 04:05:13;;;;;;;;;;;;;;;5.23;67.47;102761.81;7286936;19;19941;-68
2024/01/08 04:07:40;;;;;;;;;;;;;;;5.21;67.65;102761.03;7289427;19;20433;-67
2024/01/08 04:10:07;;;;;;;;;;;;;;;5.17;67.39;102755.13;7287728;19;19949;-67
2024/01/08 04:12:34;;;;;;;;;;;;;;;5.21;66.64;102751.44;7310182;19;19955;-68
2024/01/08 04:15:01;;;;;;;;;;;;;;;5.26;68.18;102754.69;7300376;19;19933;-69
2024/01/08 04:17:28;;;;;;;;;;;;;;;5.27;66.60;102761.63;7310341;19;20271;-68
2024/01/08 04:19:55;;;;;;;;;;;;;;;5.23;66.83;102751.38;7282097;19;19919;-67
2024/01/08 04:22:22;;;;;;;;;;;;;;;5.23;65.72;102760.06;7296104;19;19923;-67
2024/01/08 04:24:49;;;;;;;;;;;;;;;5.24;68.54;102766.94;7288917;19;19942;-67
2024/01/08 04:27:16;;;;;;;;;;;;;;;5.26;68.55;102756.44;7280061;19;20152;-67
2024/01/08 04:29:43;;;;;;;;;;;;;;;5.23;67.91;102767.88;7299285;19;20360;-67
2024/01/08 04:32:09;;;;;;;;;;;;;;;5.22;66.54;102757.53;7290560;19;20253;-68
2024/01/08 04:34:36;;;;;;;;;;;;;;;5.11;66.41;102747.56;7274558;19;19922;-68
2024/01/08 04:37:03;;;;;;;;;;;;;;;5.08;66.80;102760.72;7281327;19;20006;-67
2024/01/08 04:39:30;;;;;;;;;;;;;;;5.11;67.45;102758.00;7292767;19;20133;-67
2024/01/08 04:41:57;;;;;;;;;;;;;;;5.11;68.47;102753.63;7283276;19;19953;-68
2024/01/08 04:44:25;;;;;;;;;;;;;;;5.13;68.26;102761.38;7279257;19;20406;-67
2024/01/08 04:46:53;;;;;;;;;;;;;;;5.15;69.94;102754.34;7291581;19;19927;-69
2024/01/08 04:49:22;;;;;;;;;;;;;;;5.15;68.24;102763.00;7284729;19;20408;-67
2024/01/08 04:51:50;;;;;;;;;;;;;;;5.16;66.38;102748.22;7286306;19;19954;-68
2024/01/08 04:54:17;;;;;;;;;;;;;;;5.11;66.50;102748.41;7283184;19;20322;-67
2024/01/08 04:56:44;;;;;;;;;;;;;;;5.08;67.19;102745.94;7284310;19;20429;-68
2024/01/08 04:59:10;;;;;;;;;;;;;;;5.09;67.78;102752.00;7295626;19;20468;-66
2024/01/08 05:01:37;;;;;;;;;;;;;;;5.06;69.13;102752.16;7294675;19;19945;-66
2024/01/08 05:04:04;;;;;;;;;;;;;;;5.08;69.40;102756.38;7293904;19;19955;-67
2024/01/08 05:06:36;;;;;;;;;;;;;;;5.14;68.48;102747.41;7295763;19;19923;-68
2024/01/08 05:09:03;;;;;;;;;;;;;;;5.10;66.97;102751.09;7279281;19;19926;-67
2024/01/08 05:11:30;;;;;;;;;;;;;;;5.07;68.22;102754.69;7283350;19;20105;-67
2024/01/08 05:13:57;;;;;;;;;;;;;;;5.01;66.32;102751.50;7285118;19;19919;-67
2024/01/08 05:16:24;;;;;;;;;;;;;;;5.03;67.85;102750.50;7285764;19;19914;-69
2024/01/08 05:18:50;;;;;;;;;;;;;;;5.02;66.94;102750.59;7282272;19;20017;-67
2024/01/08 05:21:18;;;;;;;;;;;;;;;5.04;67.48;102757.44;7293427;19;19922;-68
2024/01/08 05:23:45;;;;;;;;;;;;;;;5.01;66.38;102746.28;7290228;19;20271;-68
2024/01/08 05:26:14;;;;;;;;;;;;;;;5.01;67.15;102744.53;7296680;19;19918;-68
2024/01/08 05:28:41;;;;;;;;;;;;;;;5.03;67.35;102744.44;7295227;19;19910;-68
2024/01/08 05:31:08;;;;;;;;;;;;;;;5.05;66.88;102745.22;7283820;19;19998;-66
2024/01/08 05:33:35;;;;;;;;;;;;;;;5.05;65.29;102755.66;7276209;19;20538;-66
2024/01/08 05:36:02;;;;;;;;;;;;;;;5.03;65.38;102749.66;7284593;19;19919;-68
2024/01/08 05:38:29;;;;;;;;;;;;;;;4.94;64.89;102748.31;7291236;19;20487;-67
2024/01/08 05:40:56;;;;;;;;;;;;;;;4.92;65.23;102750.19;7286026;19;21068;-68
2024/01/08 05:43:23;;;;;;;;;;;;;;;4.92;65.24;102747.56;7286001;19;20301;-68
2024/01/08 05:45:50;;;;;;;;;;;;;;;4.93;66.05;102745.78;7291259;19;20238;-67
2024/01/08 05:48:16;;;;;;;;;;;;;;;4.91;65.74;102758.91;7277684;19;20587;-69
2024/01/08 05:50:44;;;;;;;;;;;;;;;4.91;64.54;102743.25;7286381;19;19918;-67
2024/01/08 05:53:11;;;;;;;;;;;;;;;4.89;64.34;102745.06;7296419;19;20336;-67
2024/01/08 05:55:38;;;;;;;;;;;;;;;4.90;64.68;102745.94;7281854;19;20503;-68
2024/01/08 05:58:04;;;;;;;;;;;;;;;4.92;64.52;102762.34;7297952;19;19923;-66
2024/01/08 06:00:31;;;;;;;;;;;;;;;4.87;64.03;102762.56;7293128;19;20312;-68
2024/01/08 06:02:58;;;;;;;;;;;;;;;4.87;64.90;102759.13;7283868;19;21125;-67
2024/01/08 06:05:26;;;;;;;;;;;;;;;4.89;65.39;102752.03;7293549;19;20477;-69
2024/01/08 06:07:54;;;;;;;;;;;;;;;4.87;64.64;102756.50;7295916;19;19926;-67
2024/01/08 06:10:21;;;;;;;;;;;;;;;4.88;65.10;102756.41;7287605;19;20269;-68
2024/01/08 06:12:48;;;;;;;;;;;;;;;4.91;64.99;102753.69;7287565;19;22317;-68
2024/01/08 06:15:15;;;;;;;;;;;;;;;4.91;64.96;102752.84;7296708;19;20512;-69
2024/01/08 06:17:44;;;;;;;;;;;;;;;4.93;67.28;102748.38;7290616;19;20013;-67
2024/01/08 06:20:12;;;;;;;;;;;;;;;4.94;64.46;102755.28;7284990;19;20264;-68
2024/01/08 06:22:40;;;;;;;;;;;;;;;4.90;63.50;102748.53;7297779;19;19914;-68
2024/01/08 06:25:07;;;;;;;;;;;;;;;4.91;63.92;102742.41;7308218;19;19915;-67
2024/01/08 06:27:34;;;;;;;;;;;;;;;4.95;62.95;102736.97;7299248;19;19990;-69
2024/01/08 06:30:00;;;;;;;;;;;;;;;4.95;63.40;102736.97;7302921;19;19918;-68
2024/01/08 06:32:27;;;;;;;;;;;;;;;4.97;63.01;102744.75;7302561;19;20239;-67
2024/01/08 06:34:54;;;;;;;;;;;;;;;5.02;64.19;102753.22;7307863;19;19915;-68
2024/01/08 06:37:21;;;;;;;;;;;;;;;5.02;63.38;102740.16;7288115;19;19946;-68
2024/01/08 06:39:48;;;;;;;;;;;;;;;5.05;66.24;102756.50;7296335;19;20450;-69
2024/01/08 06:42:15;;;;;;;;;;;;;;;5.06;63.89;102742.56;7294289;19;20517;-68
2024/01/08 06:44:42;;;;;;;;;;;;;;;5.08;63.60;102748.53;7299076;19;20598;-70
2024/01/08 06:47:09;;;;;;;;;;;;;;;5.14;64.05;102745.66;7308630;19;20090;-68
2024/01/08 06:49:36;;;;;;;;;;;;;;;5.13;63.26;102745.72;7304171;19;20301;-67
2024/01/08 06:52:03;;;;;;;;;;;;;;;5.14;63.13;102740.44;7294264;19;20461;-67
2024/01/08 06:54:30;;;;;;;;;;;;;;;5.14;64.03;102745.66;7298373;19;19921;-67
2024/01/08 06:56:57;;;;;;;;;;;;;;;5.18;63.15;102743.78;7288717;19;20506;-67
2024/01/08 06:59:24;;;;;;;;;;;;;;;5.16;64.56;102741.22;7293652;19;20483;-67
2024/01/08 07:01:51;;;;;;;;;;;;;;;5.14;65.53;102748.25;7282644;19;20849;-67
2024/01/08 07:04:19;;;;;;;;;;;;;;;5.13;64.80;102737.88;7306832;19;19986;-67
2024/01/08 07:06:46;;;;;;;;;;;;;;;5.07;62.90;102743.41;7302582;19;19918;-67
2024/01/08 07:09:13;;;;;;;;;;;;;;;5.02;63.53;102745.38;7290223;19;20509;-68
2024/01/08 07:11:40;;;;;;;;;;;;;;;4.99;64.35;102741.13;7297893;19;19915;-68
2024/01/08 07:14:07;;;;;;;;;;;;;;;5.02;62.98;102743.63;7297758;19;20470;-69
2024/01/08 07:16:35;;;;;;;;;;;;;;;5.00;62.59;102742.84;7292561;19;20513;-68
2024/01/08 07:19:08;;;;;;;;;;;;;;;5.00;63.68;102736.78;7297005;19;19972;-67
2024/01/08 07:21:35;;;;;;;;;;;;;;;5.01;65.27;102741.06;7288952;19;20284;-67
2024/01/08 07:24:03;;;;;;;;;;;;;;;5.05;63.10;102738.25;7295732;19;20299;-71
2024/01/08 07:26:30;;;;;;;;;;;;;;;5.06;63.30;102747.78;7297490;19;19987;-68
2024/01/08 07:28:57;;;;;;;;;;;;;;;5.08;62.88;102739.88;7286402;19;20363;-66
2024/01/08 07:31:24;;;;;;;;;;;;;;;5.06;63.09;102742.56;7279934;19;19919;-69
2024/01/08 07:33:51;;;;;;;;;;;;;;;5.06;61.95;102739.09;7293158;19;20198;-67
2024/01/08 07:36:18;;;;;;;;;;;;;;;5.08;61.69;102734.66;7289439;19;19930;-67
2024/01/08 07:38:45;;;;;;;;;;;;;;;5.10;62.57;102740.66;7291581;19;20440;-67
2024/01/08 07:41:13;;;;;;;;;;;;;;;5.12;61.82;102733.63;7295405;19;20408;-68
2024/01/08 07:43:40;;;;;;;;;;;;;;;5.14;62.12;102739.59;7286166;19;19919;-68
2024/01/08 07:46:07;;;;;;;;;;;;;;;5.12;61.29;102744.06;7300522;19;20645;-68
2024/01/08 07:48:34;;;;;;;;;;;;;;;5.12;62.50;102754.50;7299067;19;19929;-67
2024/01/08 07:51:03;;;;;;;;;;;;;;;5.10;61.03;102740.66;7285815;19;19919;-69
2024/01/08 07:53:32;;;;;;;;;;;;;;;5.00;60.92;102749.81;7292561;19;20610;-69
2024/01/08 07:55:59;;;;;;;;;;;;;;;4.99;61.45;102750.72;7291971;19;20769;-68
2024/01/08 07:58:26;;;;;;;;;;;;;;;5.00;61.73;102747.19;7306189;19;19926;-68
2024/01/08 08:01:07;;;;;;;;;;;;;;;5.00;61.52;102742.84;7294116;19;19923;-68
2024/01/08 08:03:35;;;;;;;;;;;;;;;5.03;62.46;102741.84;7290151;19;20477;-68
2024/01/08 08:06:04;;;;;;;;;;;;;;;4.96;61.43;102750.88;7291519;19;20155;-68
2024/01/08 08:08:34;;;;;;;;;;;;;;;4.95;62.19;102736.13;7277375;19;19923;-67
2024/01/08 08:11:03;;;;;;;;;;;;;;;5.00;63.51;102747.19;7295467;19;19963;-67
2024/01/08 08:13:30;;;;;;;;;;;;;;;5.02;64.40;102748.84;7283903;19;19975;-70
2024/01/08 08:15:58;;;;;;;;;;;;;;;5.05;63.12;102747.84;7296447;19;19922;-68
2024/01/08 08:18:25;;;;;;;;;;;;;;;5.10;63.01;102749.31;7283304;19;19922;-69
2024/01/08 08:20:54;;;;;;;;;;;;;;;5.09;62.47;102750.25;7299539;19;20361;-67
2024/01/08 08:23:25;;;;;;;;;;;;;;;5.09;63.69;102737.19;7303822;19;20446;-66
2024/01/08 08:25:52;;;;;;;;;;;;;;;5.10;63.19;102753.69;7283809;19;20581;-66
2024/01/08 08:28:20;;;;;;;;;;;;;;;5.09;62.74;102752.00;7303278;19;19919;-66
2024/01/08 08:30:47;;;;;;;;;;;;;;;5.07;63.11;102757.31;7281419;19;20399;-66
2024/01/08 08:33:14;;;;;;;;;;;;;;;5.06;63.29;102755.59;7303221;19;20271;-66
2024/01/08 08:35:44;;;;;;;;;;;;;;;5.02;63.34;102751.44;7293738;19;19935;-66
2024/01/08 08:38:12;;;;;;;;;;;;;;;5.03;64.04;102753.13;7289490;19;19990;-67
2024/01/08 08:40:40;;;;;;;;;;;;;;;5.08;64.45;102758.13;7281311;19;19947;-67
2024/01/08 08:43:07;;;;;;;;;;;;;;;5.09;64.37;102763.28;7295100;19;19911;-66
2024/01/08 08:45:33;;;;;;;;;;;;;;;5.07;63.40;102759.06;7289583;19;19994;-67
2024/01/08 08:48:00;;;;;;;;;;;;;;;5.09;64.52;102760.66;7294697;19;20461;-67
2024/01/08 08:50:27;;;;;;;;;;;;;;;5.06;63.23;102762.59;7302947;19;19914;-67
2024/01/08 08:52:55;;;;;;;;;;;;;;;5.10;64.84;102759.75;7298757;19;20319;-68
2024/01/08 08:55:22;;;;;;;;;;;;;;;5.12;64.39;102757.09;7300866;19;19923;-67
2024/01/08 08:57:49;;;;;;;;;;;;;;;5.15;64.97;102755.19;7286797;19;19929;-67
2024/01/08 09:00:16;;;;;;;;;;;;;;;5.20;65.90;102764.56;7300136;19;20427;-69
2024/01/08 09:02:50;;;;;;;;;;;;;;;5.21;65.31;102763.66;7288146;19;19990;-68
2024/01/08 09:05:17;;;;;;;;;;;;;;;5.22;63.18;102775.78;7301872;19;20015;-66
2024/01/08 09:08:02;;;;;;;;;;;;;;;5.18;64.00;102758.56;7290986;19;19926;-67
2024/01/08 09:10:29;;;;;;;;;;;;;;;5.13;63.81;102757.00;7284729;19;20321;-66
2024/01/08 09:12:56;;;;;;;;;;;;;;;5.12;64.06;102768.38;7288886;19;21543;-66
2024/01/08 09:15:33;;;;;;;;;;;;;;;5.21;65.80;102761.03;7283514;19;19915;-68
2024/01/08 09:18:02;;;;;;;;;;;;;;;5.26;63.22;102770.34;7297293;19;19919;-67
2024/01/08 09:20:29;;;;;;;;;;;;;;;5.21;62.91;102767.09;7280785;19;19926;-67
2024/01/08 09:22:57;;;;;;;;;;;;;;;5.22;63.35;102775.78;7282135;19;20493;-68
2024/01/08 09:25:26;;;;;;;;;;;;;;;5.21;64.12;102777.53;7278800;19;19930;-68
2024/01/08 09:27:58;;;;;;;;;;;;;;;5.21;63.67;102782.75;7299917;19;19929;-67
2024/01/08 09:30:24;;;;;;;;;;;;;;;5.21;64.96;102777.53;7285836;19;21732;-66
2024/01/08 09:32:52;;;;;;;;;;;;;;;5.23;64.78;102783.56;7294060;19;19931;-66
2024/01/08 09:35:20;;;;;;;;;;;;;;;5.19;64.65;102792.41;7280134;19;20509;-67
2024/01/08 09:37:59;;;;;;;;;;;;;;;5.21;64.62;102803.63;7288593;19;19922;-68
2024/01/08 09:40:26;;;;;;;;;;;;;;;5.20;63.82;102788.88;7284088;19;19938;-68
2024/01/08 09:42:58;;;;;;;;;;;;;;;5.21;64.16;102792.34;7285985;19;20284;-67
2024/01/08 09:45:30;;;;;;;;;;;;;;;5.25;65.25;102791.28;7282439;19;19926;-67
2024/01/08 09:47:59;;;;;;;;;;;;;;;5.15;64.03;102783.03;7294706;19;20293;-67
2024/01/08 09:50:27;;;;;;;;;;;;;;;5.18;64.45;102790.75;7271467;19;19918;-66
2024/01/08 09:52:55;;;;;;;;;;;;;;;5.18;64.81;102784.66;7288682;19;20352;-68
2024/01/08 09:55:23;;;;;;;;;;;;;;;5.15;64.18;102796.06;7300845;19;20597;-68
2024/01/08 09:58:06;;;;;;;;;;;;;;;5.11;64.62;102792.75;7297796;19;19918;-68
2024/01/08 10:00:33;;;;;;;;;;;;;;;5.13;65.53;102787.47;7306341;19;19927;-69
2024/01/08 10:03:00;;;;;;;;;;;;;;;5.13;64.81;102795.28;7309104;19;19915;-69
2024/01/08 10:05:31;;;;;;;;;;;;;;;5.18;65.05;102778.50;7303753;19;21872;-68
2024/01/08 10:08:03;;;;;;;;;;;;;;;5.20;64.69;102786.28;7297836;19;19993;-67
2024/01/08 10:10:31;;;;;;;;;;;;;;;5.21;65.15;102784.53;7297471;19;20377;-67
2024/01/08 10:12:59;;;;;;;;;;;;;;;5.18;64.87;102782.91;7299843;19;20383;-68
2024/01/08 10:15:27;;;;;;;;;;;;;;;5.26;63.95;102792.97;7299942;19;19936;-67
2024/01/08 10:17:56;;;;;;;;;;;;;;;5.25;64.34;102792.13;7302884;19;20585;-68
2024/01/08 10:20:24;;;;;;;;;;;;;;;5.27;64.17;102781.63;7298544;19;19933;-68
2024/01/08 10:23:08;;;;;;;;;;;;;;;5.27;64.96;102777.25;7308292;19;19915;-67
2024/01/08 10:25:39;;;;;;;;;;;;;;;5.29;63.69;102775.41;7294917;19;20188;-68
2024/01/08 10:28:09;;;;;;;;;;;;;;;5.29;63.93;102782.41;7304144;19;19918;-67
2024/01/08 10:30:37;;;;;;;;;;;;;;;5.26;63.86;102780.78;7308789;19;19919;-67
2024/01/08 10:33:07;;;;;;;;;;;;;;;5.32;64.97;102782.28;7295327;19;19933;-66
2024/01/08 10:35:39;;;;;;;;;;;;;;;5.37;64.49;102793.34;7290219;19;21141;-67
2024/01/08 10:38:09;;;;;;;;;;;;;;;5.38;64.60;102790.69;7293933;19;19926;-67
2024/01/08 10:40:40;;;;;;;;;;;;;;;5.37;64.76;102786.38;7291045;19;19930;-68
2024/01/08 10:43:08;;;;;;;;;;;;;;;5.38;64.29;102793.28;7298384;19;19929;-67
2024/01/08 10:45:37;;;;;;;;;;;;;;;5.34;65.13;102796.94;7301973;19;19933;-68
2024/01/08 10:48:18;;;;;;;;;;;;;;;5.30;65.02;102803.22;7297868;19;20198;-67
2024/01/08 10:50:46;;;;;;;;;;;;;;;5.15;65.88;102812.56;7297067;19;19919;-67
2024/01/08 10:53:20;;;;;;;;;;;;;;;5.12;65.90;102804.91;7287330;19;20550;-67
2024/01/08 10:55:51;;;;;;;;;;;;;;;5.13;66.71;102816.16;7293634;19;20376;-68
2024/01/08 10:58:33;;;;;;;;;;;;;;;5.09;66.70;102807.63;7279252;19;19915;-67
2024/01/08 11:01:03;;;;;;;;;;;;;;;5.00;66.87;102808.03;7305996;19;20363;-68
2024/01/08 11:03:33;;;;;;;;;;;;;;;5.00;67.08;102796.75;7278011;19;19933;-68
2024/01/08 11:06:05;;;;;;;;;;;;;;;4.97;67.48;102809.94;7302787;19;19934;-68
2024/01/08 11:08:34;;;;;;;;;;;;;;;4.93;67.65;102798.78;7300279;19;20904;-67
2024/01/08 11:11:08;;;;;;;;;;;;;;;4.83;67.54;102796.63;7303252;19;19949;-69
2024/01/08 11:13:40;;;;;;;;;;;;;;;4.86;68.32;102786.94;7313326;19;20488;-68
2024/01/08 11:16:08;;;;;;;;;;;;;;;4.89;67.90;102801.59;7299068;19;20497;-67
2024/01/08 11:18:38;;;;;;;;;;;;;;;4.85;67.73;102793.06;7303836;19;19915;-66
2024/01/08 11:21:08;;;;;;;;;;;;;;;4.88;68.14;102784.25;7289904;19;19915;-68
2024/01/08 11:23:41;;;;;;;;;;;;;;;4.89;67.61;102791.16;7300542;19;19927;-69
2024/01/08 11:26:22;;;;;;;;;;;;;;;4.80;67.83;102791.56;7299233;19;20181;-68
2024/01/08 11:29:05;;;;;;;;;;;;;;;4.72;68.24;102791.94;7293532;19;19982;-68
2024/01/08 11:31:52;;;;;;;;;;;;;;;4.79;68.43;102782.91;7300445;19;19927;-69
2024/01/08 11:34:39;;;;;;;;;;;;;;;4.82;68.20;102780.19;7307858;19;21011;-67
2024/01/08 11:37:22;;;;;;;;;;;;;;;4.92;68.75;102778.84;7301570;19;19915;-67
2024/01/08 11:39:50;;;;;;;;;;;;;;;5.02;67.50;102781.91;7293884;19;20522;-69
2024/01/08 11:42:20;;;;;;;;;;;;;;;5.04;67.12;102777.44;7291601;19;19919;-68
2024/01/08 11:44:47;;;;;;;;;;;;;;;5.08;66.09;102765.94;7294722;19;20505;-67
2024/01/08 11:47:14;;;;;;;;;;;;;;;5.11;65.94;102769.28;7301033;19;20182;-67
2024/01/08 11:49:42;;;;;;;;;;;;;;;5.05;66.72;102759.13;7295894;19;19937;-67
2024/01/08 11:52:11;;;;;;;;;;;;;;;5.08;66.47;102758.97;7290465;19;20563;-68
2024/01/08 11:54:38;;;;;;;;;;;;;;;5.15;66.13;102763.00;7286585;19;19927;-68
2024/01/08 11:57:05;;;;;;;;;;;;;;;5.16;65.68;102750.81;7286477;19;19923;-66
2024/01/08 11:59:33;;;;;;;;;;;;;;;5.20;66.08;102752.34;7296192;19;19927;-67
2024/01/08 12:02:10;;;;;;;;;;;;;;;5.12;64.91;102757.94;7290531;19;20357;-67
2024/01/08 12:04:38;;;;;;;;;;;;;;;5.07;64.39;102744.25;7290309;19;20217;-68
2024/01/08 12:07:09;;;;;;;;;;;;;;;5.03;64.98;102740.06;7287550;19;21201;-68
2024/01/08 12:09:37;;;;;;;;;;;;;;;5.09;64.45;102728.53;7300270;19;19914;-68
2024/01/08 12:12:06;;;;;;;;;;;;;;;5.18;64.37;102741.16;7286010;19;19986;-67
2024/01/08 12:14:37;;;;;;;;;;;;;;;5.20;63.99;102728.88;7277429;19;20365;-67
2024/01/08 12:17:05;;;;;;;;;;;;;;;5.26;63.34;102732.97;7298091;19;19934;-68
2024/01/08 12:19:40;;;;;;;;;;;;;;;5.29;62.88;102731.06;7292634;19;19918;-68
2024/01/08 12:22:09;;;;;;;;;;;;;;;5.30;63.20;102724.06;7279693;19;19922;-67
2024/01/08 12:24:36;;;;;;;;;;;;;;;5.36;63.50;102724.66;7292939;19;20026;-66
2024/01/08 12:27:04;;;;;;;;;;;;;;;5.43;62.98;102727.81;7292755;19;20027;-67
2024/01/08 12:29:35;;;;;;;;;;;;;;;5.46;62.79;102722.44;7277885;19;19915;-67
2024/01/08 12:32:03;;;;;;;;;;;;;;;5.49;60.97;102723.13;7296972;19;20819;-70
2024/01/08 12:34:31;;;;;;;;;;;;;;;5.39;59.98;102715.81;7318273;19;19915;-68
2024/01/08 12:36:59;;;;;;;;;;;;;;;5.38;60.67;102732.41;7316374;19;19919;-68
2024/01/08 12:39:35;;;;;;;;;;;;;;;5.34;59.98;102720.41;7310923;19;19922;-67
2024/01/08 12:42:04;;;;;;;;;;;;;;;5.23;59.75;102712.25;7296366;19;20353;-67
2024/01/08 12:44:33;;;;;;;;;;;;;;;5.19;60.79;102708.91;7291419;19;20005;-70
2024/01/08 12:47:01;;;;;;;;;;;;;;;5.23;60.55;102707.88;7295762;19;20759;-68
2024/01/08 12:49:28;;;;;;;;;;;;;;;5.23;61.13;102710.50;7291409;19;20496;-68
2024/01/08 12:51:58;;;;;;;;;;;;;;;5.24;61.67;102699.13;7280437;19;22258;-67
2024/01/08 12:54:28;;;;;;;;;;;;;;;5.22;63.65;102698.34;7296008;19;19931;-66